sensor_id;sensor_type;location;lat;lon;timestamp;P1;durP1;ratioP1;P2;durP2;ratioP2
69795;SDS011;57073;45.650;9.612;2022-12-24T00:00:22;105.68;;;43.85;;
69795;SDS011;57073;45.650;9.612;2022-12-24T00:10:23;94.30;;;41.43;;
69795;SDS011;57073;45.650;9.612;2022-12-24T00:20:24;97.55;;;42.38;;
69795;SDS011;57073;45.650;9.612;2022-12-24T00:30:24;90.95;;;39.72;;
69795;SDS011;57073;45.650;9.612;2022-12-24T00:40:24;91.73;;;41.27;;
69795;SDS011;57073;45.650;9.612;2022-12-24T00:50:25;89.63;;;39.80;;
69795;SDS011;57073;45.650;9.612;2022-12-24T01:00:25;83.38;;;39.42;;
69795;SDS011;57073;45.650;9.612;2022-12-24T01:10:26;77.60;;;36.15;;
69795;SDS011;57073;45.650;9.612;2022-12-24T01:20:26;76.23;;;33.83;;
69795;SDS011;57073;45.650;9.612;2022-12-24T01:30:30;64.65;;;30.60;;
69795;SDS011;57073;45.650;9.612;2022-12-24T01:40:31;64.63;;;27.73;;
69795;SDS011;57073;45.650;9.612;2022-12-24T01:50:52;57.07;;;26.00;;
69795;SDS011;57073;45.650;9.612;2022-12-24T02:00:57;52.70;;;25.30;;
69795;SDS011;57073;45.650;9.612;2022-12-24T02:10:57;54.10;;;24.97;;
69795;SDS011;57073;45.650;9.612;2022-12-24T02:31:21;53.80;;;25.43;;
69795;SDS011;57073;45.650;9.612;2022-12-24T02:41:37;51.83;;;22.95;;
69795;SDS011;57073;45.650;9.612;2022-12-24T02:52:00;50.23;;;22.30;;
69795;SDS011;57073;45.650;9.612;2022-12-24T03:12:26;40.10;;;18.97;;
69795;SDS011;57073;45.650;9.612;2022-12-24T03:22:32;38.60;;;18.63;;
69795;SDS011;57073;45.650;9.612;2022-12-24T03:32:34;41.53;;;19.10;;
69795;SDS011;57073;45.650;9.612;2022-12-24T03:42:34;40.03;;;18.88;;
69795;SDS011;57073;45.650;9.612;2022-12-24T03:52:35;41.30;;;18.40;;
69795;SDS011;57073;45.650;9.612;2022-12-24T04:02:35;38.92;;;17.75;;
69795;SDS011;57073;45.650;9.612;2022-12-24T04:12:36;36.97;;;17.47;;
69795;SDS011;57073;45.650;9.612;2022-12-24T04:22:36;34.97;;;17.27;;
69795;SDS011;57073;45.650;9.612;2022-12-24T04:32:37;34.00;;;16.33;;
69795;SDS011;57073;45.650;9.612;2022-12-24T04:42:37;32.20;;;15.30;;
69795;SDS011;57073;45.650;9.612;2022-12-24T04:52:37;34.30;;;15.70;;
69795;SDS011;57073;45.650;9.612;2022-12-24T05:02:38;36.17;;;18.57;;
69795;SDS011;57073;45.650;9.612;2022-12-24T05:12:38;35.70;;;16.75;;
69795;SDS011;57073;45.650;9.612;2022-12-24T05:22:39;36.77;;;17.63;;
69795;SDS011;57073;45.650;9.612;2022-12-24T05:32:58;39.05;;;18.08;;
69795;SDS011;57073;45.650;9.612;2022-12-24T05:42:59;32.90;;;15.87;;
69795;SDS011;57073;45.650;9.612;2022-12-24T05:52:59;31.73;;;15.80;;
69795;SDS011;57073;45.650;9.612;2022-12-24T06:02:59;33.37;;;16.57;;
69795;SDS011;57073;45.650;9.612;2022-12-24T06:13:00;35.42;;;16.40;;
69795;SDS011;57073;45.650;9.612;2022-12-24T06:23:00;31.15;;;16.02;;
69795;SDS011;57073;45.650;9.612;2022-12-24T06:33:00;35.37;;;16.33;;
69795;SDS011;57073;45.650;9.612;2022-12-24T06:43:01;41.57;;;17.43;;
69795;SDS011;57073;45.650;9.612;2022-12-24T06:53:01;38.72;;;17.80;;
69795;SDS011;57073;45.650;9.612;2022-12-24T07:03:02;37.80;;;17.53;;
69795;SDS011;57073;45.650;9.612;2022-12-24T07:13:02;33.08;;;16.25;;
69795;SDS011;57073;45.650;9.612;2022-12-24T07:23:02;29.43;;;14.67;;
69795;SDS011;57073;45.650;9.612;2022-12-24T07:33:03;36.20;;;16.38;;
69795;SDS011;57073;45.650;9.612;2022-12-24T07:43:03;31.45;;;15.20;;
69795;SDS011;57073;45.650;9.612;2022-12-24T07:53:04;27.90;;;13.57;;
69795;SDS011;57073;45.650;9.612;2022-12-24T08:03:04;30.77;;;14.67;;
69795;SDS011;57073;45.650;9.612;2022-12-24T08:13:04;32.28;;;14.77;;
69795;SDS011;57073;45.650;9.612;2022-12-24T08:23:05;32.47;;;15.15;;
69795;SDS011;57073;45.650;9.612;2022-12-24T08:33:07;29.23;;;14.30;;
69795;SDS011;57073;45.650;9.612;2022-12-24T08:43:07;35.95;;;16.08;;
69795;SDS011;57073;45.650;9.612;2022-12-24T08:53:08;38.07;;;17.80;;
69795;SDS011;57073;45.650;9.612;2022-12-24T09:03:11;45.58;;;18.33;;
69795;SDS011;57073;45.650;9.612;2022-12-24T09:13:13;40.60;;;18.63;;
69795;SDS011;57073;45.650;9.612;2022-12-24T09:23:14;58.90;;;21.63;;
69795;SDS011;57073;45.650;9.612;2022-12-24T09:33:14;58.17;;;22.83;;
69795;SDS011;57073;45.650;9.612;2022-12-24T09:43:17;72.17;;;26.23;;
69795;SDS011;57073;45.650;9.612;2022-12-24T10:03:29;76.77;;;27.10;;
69795;SDS011;57073;45.650;9.612;2022-12-24T10:24:06;74.53;;;27.40;;
69795;SDS011;57073;45.650;9.612;2022-12-24T10:34:18;72.77;;;26.70;;
69795;SDS011;57073;45.650;9.612;2022-12-24T10:44:23;80.47;;;29.63;;
69795;SDS011;57073;45.650;9.612;2022-12-24T10:54:27;73.87;;;27.93;;
69795;SDS011;57073;45.650;9.612;2022-12-24T11:04:29;73.53;;;27.95;;
69795;SDS011;57073;45.650;9.612;2022-12-24T11:14:32;91.40;;;33.10;;
69795;SDS011;57073;45.650;9.612;2022-12-24T11:24:36;89.85;;;34.65;;
69795;SDS011;57073;45.650;9.612;2022-12-24T11:34:37;113.63;;;38.07;;
69795;SDS011;57073;45.650;9.612;2022-12-24T11:44:46;117.23;;;37.50;;
69795;SDS011;57073;45.650;9.612;2022-12-24T12:05:27;116.87;;;40.57;;
69795;SDS011;57073;45.650;9.612;2022-12-24T12:15:36;113.70;;;38.28;;
69795;SDS011;57073;45.650;9.612;2022-12-24T12:25:43;111.53;;;38.63;;
69795;SDS011;57073;45.650;9.612;2022-12-24T12:35:50;109.13;;;39.37;;
69795;SDS011;57073;45.650;9.612;2022-12-24T13:16:45;96.57;;;38.80;;
69795;SDS011;57073;45.650;9.612;2022-12-24T13:26:58;90.90;;;36.53;;
69795;SDS011;57073;45.650;9.612;2022-12-24T13:37:01;92.70;;;36.80;;
69795;SDS011;57073;45.650;9.612;2022-12-24T13:47:16;91.60;;;36.67;;
69795;SDS011;57073;45.650;9.612;2022-12-24T14:07:23;93.90;;;39.07;;
69795;SDS011;57073;45.650;9.612;2022-12-24T14:17:24;91.03;;;36.50;;
69795;SDS011;57073;45.650;9.612;2022-12-24T14:27:29;89.87;;;35.70;;
69795;SDS011;57073;45.650;9.612;2022-12-24T14:37:38;91.27;;;36.70;;
69795;SDS011;57073;45.650;9.612;2022-12-24T14:47:55;94.85;;;35.60;;
69795;SDS011;57073;45.650;9.612;2022-12-24T14:58:24;85.67;;;34.27;;
69795;SDS011;57073;45.650;9.612;2022-12-24T15:08:28;80.07;;;33.37;;
69795;SDS011;57073;45.650;9.612;2022-12-24T15:18:32;83.88;;;35.10;;
69795;SDS011;57073;45.650;9.612;2022-12-24T15:28:36;100.57;;;38.87;;
69795;SDS011;57073;45.650;9.612;2022-12-24T15:38:42;102.90;;;40.57;;
69795;SDS011;57073;45.650;9.612;2022-12-24T15:48:44;103.20;;;41.30;;
69795;SDS011;57073;45.650;9.612;2022-12-24T15:58:45;97.70;;;40.60;;
69795;SDS011;57073;45.650;9.612;2022-12-24T16:08:46;100.40;;;39.30;;
69795;SDS011;57073;45.650;9.612;2022-12-24T16:18:50;94.70;;;36.77;;
69795;SDS011;57073;45.650;9.612;2022-12-24T16:28:53;87.77;;;36.60;;
69795;SDS011;57073;45.650;9.612;2022-12-24T16:38:55;89.70;;;35.95;;
69795;SDS011;57073;45.650;9.612;2022-12-24T16:49:15;78.57;;;36.23;;
69795;SDS011;57073;45.650;9.612;2022-12-24T16:59:18;88.20;;;36.03;;
69795;SDS011;57073;45.650;9.612;2022-12-24T17:09:20;91.30;;;36.22;;
69795;SDS011;57073;45.650;9.612;2022-12-24T17:19:20;98.83;;;42.10;;
69795;SDS011;57073;45.650;9.612;2022-12-24T17:29:21;81.90;;;34.23;;
69795;SDS011;57073;45.650;9.612;2022-12-24T17:39:21;87.03;;;34.50;;
69795;SDS011;57073;45.650;9.612;2022-12-24T17:49:21;89.18;;;35.17;;
69795;SDS011;57073;45.650;9.612;2022-12-24T17:59:22;91.07;;;37.17;;
69795;SDS011;57073;45.650;9.612;2022-12-24T18:09:22;151.90;;;65.53;;
69795;SDS011;57073;45.650;9.612;2022-12-24T18:19:23;100.83;;;39.20;;
69795;SDS011;57073;45.650;9.612;2022-12-24T18:29:23;82.53;;;32.90;;
69795;SDS011;57073;45.650;9.612;2022-12-24T18:39:24;83.35;;;32.67;;
69795;SDS011;57073;45.650;9.612;2022-12-24T18:49:24;80.20;;;30.83;;
69795;SDS011;57073;45.650;9.612;2022-12-24T18:59:25;77.32;;;31.58;;
69795;SDS011;57073;45.650;9.612;2022-12-24T19:09:25;71.40;;;30.35;;
69795;SDS011;57073;45.650;9.612;2022-12-24T19:19:26;77.07;;;30.50;;
69795;SDS011;57073;45.650;9.612;2022-12-24T19:29:26;97.00;;;44.03;;
69795;SDS011;57073;45.650;9.612;2022-12-24T19:39:26;82.57;;;33.70;;
69795;SDS011;57073;45.650;9.612;2022-12-24T19:49:28;93.63;;;38.93;;
69795;SDS011;57073;45.650;9.612;2022-12-24T19:59:28;72.87;;;29.53;;
69795;SDS011;57073;45.650;9.612;2022-12-24T20:09:28;73.05;;;27.95;;
69795;SDS011;57073;45.650;9.612;2022-12-24T20:19:31;88.83;;;34.43;;
69795;SDS011;57073;45.650;9.612;2022-12-24T20:29:31;77.47;;;32.15;;
69795;SDS011;57073;45.650;9.612;2022-12-24T20:39:32;81.75;;;31.65;;
69795;SDS011;57073;45.650;9.612;2022-12-24T20:49:32;88.28;;;35.65;;
69795;SDS011;57073;45.650;9.612;2022-12-24T20:59:33;84.33;;;34.10;;
69795;SDS011;57073;45.650;9.612;2022-12-24T21:09:33;93.70;;;36.70;;
69795;SDS011;57073;45.650;9.612;2022-12-24T21:19:33;94.70;;;38.17;;
69795;SDS011;57073;45.650;9.612;2022-12-24T21:29:34;93.30;;;35.90;;
69795;SDS011;57073;45.650;9.612;2022-12-24T21:39:34;87.47;;;33.90;;
69795;SDS011;57073;45.650;9.612;2022-12-24T21:49:34;84.05;;;33.72;;
69795;SDS011;57073;45.650;9.612;2022-12-24T21:59:55;79.53;;;31.37;;
69795;SDS011;57073;45.650;9.612;2022-12-24T22:10:16;85.53;;;33.13;;
69795;SDS011;57073;45.650;9.612;2022-12-24T22:20:35;117.77;;;47.13;;
69795;SDS011;57073;45.650;9.612;2022-12-24T22:30:37;84.53;;;35.10;;
69795;SDS011;57073;45.650;9.612;2022-12-24T22:40:39;74.10;;;29.70;;
69795;SDS011;57073;45.650;9.612;2022-12-24T22:50:39;71.00;;;29.13;;
69795;SDS011;57073;45.650;9.612;2022-12-24T23:00:43;72.90;;;28.57;;
69795;SDS011;57073;45.650;9.612;2022-12-24T23:10:44;67.15;;;27.17;;
69795;SDS011;57073;45.650;9.612;2022-12-24T23:20:44;72.67;;;28.43;;
69795;SDS011;57073;45.650;9.612;2022-12-24T23:30:44;62.22;;;25.27;;
69795;SDS011;57073;45.650;9.612;2022-12-24T23:40:56;67.10;;;24.57;;
69795;SDS011;57073;45.650;9.612;2022-12-24T23:51:14;56.83;;;23.10;;
